createdAt,value
2023-03-04T00:02:18.133Z,1.61
2023-03-04T00:04:44.858Z,1.65
2023-03-04T00:07:11.664Z,1.65
2023-03-04T00:09:38.285Z,1.63
2023-03-04T00:12:05.129Z,1.77
2023-03-04T00:14:31.795Z,1.59
2023-03-04T00:16:58.474Z,1.47
2023-03-04T00:19:27.449Z,1.54
2023-03-04T00:21:54.044Z,1.29
2023-03-04T00:24:22.572Z,1.30
2023-03-04T00:26:49.257Z,1.09
2023-03-04T00:29:15.933Z,1.28
2023-03-04T00:31:42.956Z,1.25
2023-03-04T00:34:09.703Z,1.25
2023-03-04T00:36:36.344Z,1.06
2023-03-04T00:39:02.989Z,0.93
2023-03-04T00:41:29.647Z,1.04
2023-03-04T00:43:56.389Z,1.11
2023-03-04T00:46:23.096Z,1.10
2023-03-04T00:48:49.768Z,0.96
2023-03-04T00:51:16.400Z,1.14
2023-03-04T00:53:43.053Z,1.00
2023-03-04T00:56:09.834Z,0.99
2023-03-04T00:58:36.713Z,1.00
2023-03-04T01:01:03.438Z,0.93
2023-03-04T01:03:30.059Z,0.91
2023-03-04T01:05:56.900Z,0.94
2023-03-04T01:08:23.585Z,0.88
2023-03-04T01:10:51.652Z,0.79
2023-03-04T01:13:18.979Z,0.63
2023-03-04T01:15:45.737Z,0.47
2023-03-04T01:18:12.608Z,0.60
2023-03-04T01:20:39.328Z,0.54
2023-03-04T01:23:06.119Z,0.68
2023-03-04T01:25:32.837Z,0.69
2023-03-04T01:27:59.449Z,0.31
2023-03-04T01:30:26.088Z,-0.40
2023-03-04T01:32:52.781Z,-0.10
2023-03-04T01:35:19.675Z,0.32
2023-03-04T01:37:46.358Z,-0.22
2023-03-04T01:40:14.224Z,-0.00
2023-03-04T01:42:41.100Z,0.18
2023-03-04T01:45:12.531Z,0.05
2023-03-04T01:47:39.448Z,-0.72
2023-03-04T01:50:17.929Z,-1.35
2023-03-04T01:52:44.616Z,-0.86
2023-03-04T01:55:16.805Z,-0.62
2023-03-04T01:57:44.254Z,-0.27
2023-03-04T02:00:20.346Z,-0.26
2023-03-04T02:02:50.297Z,-0.45
2023-03-04T02:05:17.330Z,-0.22
2023-03-04T02:07:43.922Z,-0.42
2023-03-04T02:10:12.101Z,-0.04
2023-03-04T02:12:39.650Z,-0.25
2023-03-04T02:15:07.160Z,-0.20
2023-03-04T02:17:33.812Z,-0.04
2023-03-04T02:20:09.425Z,0.01
2023-03-04T02:22:42.472Z,0.06
2023-03-04T02:25:22.384Z,0.10
2023-03-04T02:27:49.023Z,0.03
2023-03-04T02:30:21.480Z,-0.06
2023-03-04T02:32:48.154Z,-0.01
2023-03-04T02:35:18.077Z,-0.10
2023-03-04T02:37:45.241Z,-0.25
2023-03-04T02:40:31.285Z,-0.54
2023-03-04T02:43:01.249Z,-0.41
2023-03-04T02:45:51.199Z,-0.33
2023-03-04T02:48:20.756Z,-0.54
2023-03-04T02:50:52.793Z,-0.69
2023-03-04T02:53:20.713Z,-0.50
2023-03-04T02:55:48.297Z,-0.57
2023-03-04T02:58:15.245Z,-0.98
2023-03-04T03:00:42.180Z,-0.87
2023-03-04T03:03:09.239Z,-1.09
2023-03-04T03:05:38.212Z,-1.02
2023-03-04T03:08:05.446Z,-1.39
2023-03-04T03:10:32.229Z,-1.29
2023-03-04T03:12:58.887Z,-1.02
2023-03-04T03:15:25.674Z,-0.86
2023-03-04T03:17:52.315Z,-0.75
2023-03-04T03:20:19.647Z,-0.60
2023-03-04T03:22:47.347Z,-0.68
2023-03-04T03:25:16.558Z,-0.72
2023-03-04T03:27:43.385Z,-0.99
2023-03-04T03:30:12.493Z,-0.91
2023-03-04T03:32:39.221Z,-0.89
2023-03-04T03:35:06.241Z,-0.76
2023-03-04T03:37:33.217Z,-0.75
2023-03-04T03:39:59.849Z,-0.77
2023-03-04T03:42:26.533Z,-0.84
2023-03-04T03:44:53.235Z,-0.96
2023-03-04T03:47:21.691Z,-0.95
2023-03-04T03:49:48.851Z,-0.90
2023-03-04T03:52:15.588Z,-0.92
2023-03-04T03:54:42.277Z,-1.04
2023-03-04T03:57:08.997Z,-1.02
2023-03-04T03:59:35.692Z,-1.19
2023-03-04T04:02:02.527Z,-1.06
2023-03-04T04:04:29.436Z,-1.16
2023-03-04T04:06:56.157Z,-1.37
2023-03-04T04:09:22.893Z,-1.61
2023-03-04T04:11:52.294Z,-1.51
2023-03-04T04:14:18.989Z,-1.52
2023-03-04T04:16:45.656Z,-1.24
2023-03-04T04:19:20.016Z,-1.49
2023-03-04T04:21:47.113Z,-1.25
2023-03-04T04:24:14.253Z,-1.54
2023-03-04T04:26:41.269Z,-1.73
2023-03-04T04:29:09.304Z,-1.71
2023-03-04T04:31:36.019Z,-1.27
2023-03-04T04:34:02.636Z,-1.51
2023-03-04T04:36:29.323Z,-1.62
2023-03-04T04:38:56.054Z,-1.45
2023-03-04T04:41:26.353Z,-1.42
2023-03-04T04:43:53.397Z,-1.63
2023-03-04T04:46:20.587Z,-1.47
2023-03-04T04:48:47.559Z,-1.44
2023-03-04T04:51:14.658Z,-1.56
2023-03-04T04:53:41.308Z,-1.56
2023-03-04T04:56:15.377Z,-1.64
2023-03-04T04:58:43.084Z,-1.54
2023-03-04T05:01:10.391Z,-1.56
2023-03-04T05:03:38.336Z,-1.49
2023-03-04T05:06:07.026Z,-1.53
2023-03-04T05:08:34.505Z,-1.62
2023-03-04T05:11:02.174Z,-1.62
2023-03-04T05:13:28.828Z,-1.44
2023-03-04T05:15:56.884Z,-1.81
2023-03-04T05:18:25.994Z,-1.93
2023-03-04T05:20:56.553Z,-1.96
2023-03-04T05:23:24.062Z,-1.97
2023-03-04T05:25:51.425Z,-2.02
2023-03-04T05:28:18.310Z,-2.16
2023-03-04T05:30:46.303Z,-2.16
2023-03-04T05:33:14.836Z,-1.96
2023-03-04T05:35:42.518Z,-2.01
2023-03-04T05:38:11.318Z,-1.94
2023-03-04T05:40:38.908Z,-1.72
2023-03-04T05:43:05.601Z,-1.84
2023-03-04T05:45:32.389Z,-1.33
2023-03-04T05:47:59.375Z,-1.04
2023-03-04T05:50:26.898Z,-0.70
2023-03-04T05:52:53.572Z,-1.25
2023-03-04T05:55:20.482Z,-1.20
2023-03-04T05:57:47.420Z,-1.09
2023-03-04T06:00:15.548Z,-1.22
2023-03-04T06:02:43.411Z,-1.25
2023-03-04T06:05:12.872Z,-1.48
2023-03-04T06:07:39.619Z,-1.51
2023-03-04T06:10:07.098Z,-1.31
2023-03-04T06:12:37.445Z,-1.33
2023-03-04T06:15:04.586Z,-0.77
2023-03-04T06:17:31.247Z,-0.41
2023-03-04T06:19:58.057Z,-0.68
2023-03-04T06:22:24.724Z,-1.10
2023-03-04T06:24:51.379Z,-1.06
2023-03-04T06:27:18.007Z,-0.42
2023-03-04T06:29:44.785Z,-0.69
2023-03-04T06:32:11.468Z,-0.67
2023-03-04T06:34:38.374Z,0.10
2023-03-04T06:37:05.040Z,0.06
2023-03-04T06:39:31.840Z,0.13
2023-03-04T06:41:58.796Z,-0.28
2023-03-04T06:44:25.433Z,0.14
2023-03-04T06:46:52.220Z,0.34
2023-03-04T06:49:19.141Z,-0.15
2023-03-04T06:51:45.919Z,-0.24
2023-03-04T06:54:12.539Z,-0.20
2023-03-04T06:56:39.254Z,-0.35
2023-03-04T06:59:06.007Z,-0.08
2023-03-04T07:01:32.977Z,-0.67
2023-03-04T07:03:59.958Z,-0.30
2023-03-04T07:06:28.191Z,-0.09
2023-03-04T07:08:55.665Z,0.04
2023-03-04T07:11:23.476Z,-0.45
2023-03-04T07:13:51.201Z,-0.37
2023-03-04T07:16:20.787Z,-0.42
2023-03-04T07:18:47.595Z,-0.80
2023-03-04T07:21:15.244Z,-0.75
2023-03-04T07:23:44.729Z,-0.52
2023-03-04T07:26:11.939Z,0.04
2023-03-04T07:28:38.953Z,-0.08
2023-03-04T07:31:23.524Z,0.01
2023-03-04T07:33:51.569Z,0.09
2023-03-04T07:36:18.248Z,0.55
2023-03-04T07:38:49.186Z,0.55
2023-03-04T07:41:16.717Z,0.35
2023-03-04T07:43:43.603Z,0.33
2023-03-04T07:46:10.664Z,0.36
2023-03-04T07:48:37.604Z,0.62
2023-03-04T07:51:07.833Z,1.25
2023-03-04T07:53:36.025Z,1.25
2023-03-04T07:56:03.867Z,1.75
2023-03-04T07:58:30.622Z,1.45
2023-03-04T08:00:57.656Z,1.46
2023-03-04T08:03:24.601Z,1.79
2023-03-04T08:05:51.772Z,2.09
2023-03-04T08:08:18.434Z,2.53
2023-03-04T08:10:45.673Z,3.10
2023-03-04T08:13:12.340Z,3.23
2023-03-04T08:15:45.428Z,3.38
2023-03-04T08:18:12.183Z,3.47
2023-03-04T08:20:42.770Z,3.63
2023-03-04T08:23:10.843Z,3.89
2023-03-04T08:25:42.556Z,3.61
2023-03-04T08:28:10.604Z,3.54
2023-03-04T08:30:39.305Z,3.70
2023-03-04T08:33:06.398Z,3.93
2023-03-04T08:35:36.159Z,4.17
2023-03-04T08:38:02.887Z,4.20
2023-03-04T08:40:29.634Z,4.38
2023-03-04T08:42:56.318Z,4.33
2023-03-04T08:45:23.181Z,4.38
2023-03-04T08:47:51.730Z,4.60
2023-03-04T08:50:20.171Z,4.61
2023-03-04T08:52:48.184Z,4.61
2023-03-04T08:55:15.018Z,4.90
2023-03-04T08:57:41.613Z,5.04
2023-03-04T09:00:09.024Z,4.96
2023-03-04T09:02:35.947Z,4.89
2023-03-04T09:05:02.655Z,4.82
2023-03-04T09:07:29.297Z,4.83
2023-03-04T09:09:55.926Z,4.97
2023-03-04T09:12:22.690Z,5.36
2023-03-04T09:15:01.152Z,5.60
2023-03-04T09:17:35.299Z,5.45
2023-03-04T09:20:04.448Z,5.72
2023-03-04T09:22:31.780Z,5.80
2023-03-04T09:24:58.418Z,5.98
2023-03-04T09:27:25.551Z,5.91
2023-03-04T09:29:52.199Z,6.07
2023-03-04T09:32:19.001Z,6.21
2023-03-04T09:34:45.696Z,6.26
2023-03-04T09:37:12.349Z,6.19
2023-03-04T09:39:39.091Z,6.18
2023-03-04T09:42:08.191Z,6.43
2023-03-04T09:44:40.054Z,6.48
2023-03-04T09:47:13.850Z,6.61
2023-03-04T09:49:44.966Z,6.71
2023-03-04T09:52:52.607Z,6.95
2023-03-04T09:55:35.997Z,7.46
2023-03-04T09:58:30.275Z,7.40
2023-03-04T10:01:09.709Z,7.21
2023-03-04T10:03:45.470Z,7.26
2023-03-04T10:06:18.302Z,7.34
2023-03-04T10:09:26.791Z,7.21
2023-03-04T10:12:01.054Z,7.04
2023-03-04T10:14:35.691Z,7.44
2023-03-04T10:17:19.051Z,7.37
2023-03-04T10:19:58.492Z,7.22
2023-03-04T10:22:28.163Z,7.45
2023-03-04T10:24:59.585Z,7.31
2023-03-04T10:27:26.486Z,7.35
2023-03-04T10:29:53.217Z,7.35
2023-03-04T10:32:20.991Z,7.57
2023-03-04T10:34:47.822Z,7.49
2023-03-04T10:37:17.090Z,7.61
2023-03-04T10:39:46.546Z,7.66
2023-03-04T10:42:16.107Z,7.75
2023-03-04T10:44:51.477Z,7.77
2023-03-04T10:47:18.123Z,7.78
2023-03-04T10:50:16.941Z,8.07
2023-03-04T10:52:49.712Z,8.51
2023-03-04T10:55:24.908Z,8.31
2023-03-04T10:57:57.900Z,8.37
2023-03-04T11:00:31.308Z,8.36
2023-03-04T11:03:22.536Z,8.50
2023-03-04T11:05:49.946Z,8.57
2023-03-04T11:08:19.819Z,8.93
2023-03-04T11:10:46.930Z,8.94
2023-03-04T11:13:19.517Z,8.63
2023-03-04T11:16:06.052Z,8.87
2023-03-04T11:18:46.989Z,8.87
2023-03-04T11:21:20.580Z,9.02
2023-03-04T11:23:58.605Z,9.12
2023-03-04T11:26:48.862Z,9.29
2023-03-04T11:29:23.162Z,8.97
2023-03-04T11:32:00.860Z,9.09
2023-03-04T11:34:27.527Z,8.93
2023-03-04T11:37:08.514Z,9.15
2023-03-04T11:39:50.698Z,9.38
2023-03-04T11:42:37.500Z,9.12
2023-03-04T11:45:28.453Z,9.11
2023-03-04T11:48:23.944Z,9.25
2023-03-04T11:50:54.682Z,9.58
2023-03-04T11:53:39.936Z,9.71
2023-03-04T11:56:27.560Z,9.42
2023-03-04T11:59:09.289Z,9.47
2023-03-04T12:01:54.515Z,9.33
2023-03-04T12:04:58.502Z,9.32
2023-03-04T12:07:45.208Z,9.14
2023-03-04T12:10:30.325Z,9.12
2023-03-04T12:13:35.739Z,9.31
2023-03-04T12:16:33.120Z,9.29
2023-03-04T12:19:29.916Z,9.12
2023-03-04T12:22:11.954Z,9.05
2023-03-04T12:24:42.592Z,9.45
2023-03-04T12:27:38.866Z,9.50
2023-03-04T12:30:24.373Z,9.40
2023-03-04T12:33:00.568Z,9.69
2023-03-04T12:35:48.305Z,9.22
2023-03-04T12:38:20.828Z,9.27
2023-03-04T12:41:25.652Z,9.28
2023-03-04T12:44:00.924Z,9.42
2023-03-04T12:46:49.294Z,9.15
2023-03-04T12:49:52.584Z,9.36
2023-03-04T12:52:47.705Z,9.52
2023-03-04T12:55:18.971Z,9.81
2023-03-04T12:57:46.453Z,9.72
2023-03-04T13:00:13.065Z,9.80
2023-03-04T13:02:45.507Z,9.57
2023-03-04T13:05:40.361Z,9.56
2023-03-04T13:08:15.461Z,9.63
2023-03-04T13:10:42.071Z,9.66
2023-03-04T13:13:42.088Z,9.61
2023-03-04T13:16:11.904Z,9.73
2023-03-04T13:18:41.376Z,9.80
2023-03-04T13:21:30.880Z,9.83
2023-03-04T13:24:01.923Z,9.93
2023-03-04T13:26:29.868Z,10.17
2023-03-04T13:29:25.639Z,10.27
2023-03-04T13:32:20.431Z,10.30
2023-03-04T13:34:51.780Z,10.18
2023-03-04T13:37:28.880Z,10.38
2023-03-04T13:40:20.594Z,10.17
2023-03-04T13:42:47.372Z,10.19
2023-03-04T13:45:29.494Z,10.34
2023-03-04T13:47:56.227Z,10.16
2023-03-04T13:50:35.336Z,10.84
2023-03-04T13:54:11.619Z,10.45
2023-03-04T13:56:41.867Z,10.55
2023-03-04T13:59:21.819Z,10.60
2023-03-04T14:01:52.458Z,10.68
2023-03-04T14:04:28.036Z,10.60
2023-03-04T14:06:57.269Z,10.70
2023-03-04T14:09:32.732Z,11.00
2023-03-04T14:12:02.428Z,10.84
2023-03-04T14:14:51.383Z,10.44
2023-03-04T14:17:23.067Z,10.55
2023-03-04T14:19:52.502Z,10.69
2023-03-04T14:22:40.104Z,10.69
2023-03-04T14:25:18.910Z,10.48
2023-03-04T14:27:46.369Z,10.35
2023-03-04T14:30:35.492Z,10.26
2023-03-04T14:33:15.294Z,10.39
2023-03-04T14:35:48.315Z,10.38
2023-03-04T14:38:34.226Z,10.20
2023-03-04T14:41:12.231Z,10.54
2023-03-04T14:43:49.926Z,10.49
2023-03-04T14:46:18.552Z,10.55
2023-03-04T14:48:50.396Z,10.37
2023-03-04T14:51:30.368Z,10.31
2023-03-04T14:53:58.054Z,10.34
2023-03-04T14:56:30.423Z,10.07
2023-03-04T14:58:58.722Z,10.17
2023-03-04T15:01:36.804Z,10.02
2023-03-04T15:04:14.325Z,10.16
2023-03-04T15:06:50.416Z,9.91
2023-03-04T15:09:20.032Z,9.92
2023-03-04T15:11:50.982Z,9.93
2023-03-04T15:14:45.296Z,10.04
2023-03-04T15:17:27.063Z,9.66
2023-03-04T15:20:02.785Z,9.84
2023-03-04T15:22:29.917Z,9.61
2023-03-04T15:24:56.835Z,9.29
2023-03-04T15:27:24.573Z,9.32
2023-03-04T15:29:55.601Z,9.11
2023-03-04T15:32:23.658Z,9.20
2023-03-04T15:34:50.379Z,9.06
2023-03-04T15:37:21.943Z,8.99
2023-03-04T15:39:48.829Z,9.03
2023-03-04T15:42:15.527Z,8.38
2023-03-04T15:44:42.470Z,8.52
2023-03-04T15:47:10.914Z,8.51
2023-03-04T15:49:37.499Z,8.48
2023-03-04T15:52:06.438Z,8.52
2023-03-04T15:54:33.446Z,8.76
2023-03-04T15:57:00.120Z,7.91
2023-03-04T15:59:26.742Z,8.24
2023-03-04T16:01:53.450Z,7.87
2023-03-04T16:04:20.214Z,7.49
2023-03-04T16:06:49.124Z,7.28
2023-03-04T16:09:18.529Z,7.43
2023-03-04T16:11:46.153Z,7.48
2023-03-04T16:14:14.123Z,7.29
2023-03-04T16:16:44.642Z,7.45
2023-03-04T16:19:11.290Z,7.27
2023-03-04T16:21:37.991Z,7.38
2023-03-04T16:24:05.144Z,6.87
2023-03-04T16:26:40.937Z,6.55
2023-03-04T16:29:09.435Z,6.61
2023-03-04T16:31:36.227Z,6.44
2023-03-04T16:34:02.921Z,6.36
2023-03-04T16:36:29.781Z,6.70
2023-03-04T16:38:59.540Z,7.04
2023-03-04T16:41:30.325Z,6.54
2023-03-04T16:44:00.713Z,6.48
2023-03-04T16:46:27.912Z,6.03
2023-03-04T16:48:54.854Z,6.35
2023-03-04T16:51:23.614Z,6.00
2023-03-04T16:53:57.367Z,5.88
2023-03-04T16:56:24.065Z,6.02
2023-03-04T16:58:51.449Z,5.78
2023-03-04T17:01:20.098Z,5.93
2023-03-04T17:03:47.177Z,5.92
2023-03-04T17:06:14.976Z,5.87
2023-03-04T17:08:41.883Z,5.83
2023-03-04T17:11:12.311Z,5.72
2023-03-04T17:13:38.958Z,5.80
2023-03-04T17:16:05.894Z,5.80
2023-03-04T17:18:32.698Z,5.99
2023-03-04T17:21:08.243Z,6.12
2023-03-04T17:23:38.285Z,5.48
2023-03-04T17:26:05.370Z,5.36
2023-03-04T17:28:32.588Z,5.39
2023-03-04T17:30:59.708Z,5.35
2023-03-04T17:33:26.432Z,5.23
2023-03-04T17:35:53.304Z,5.30
2023-03-04T17:38:20.136Z,5.51
2023-03-04T17:40:47.030Z,5.41
2023-03-04T17:43:13.812Z,5.08
2023-03-04T17:45:41.914Z,5.09
2023-03-04T17:48:10.878Z,5.33
2023-03-04T17:50:37.591Z,5.17
2023-03-04T17:53:04.191Z,5.19
2023-03-04T17:55:30.794Z,5.01
2023-03-04T17:57:57.640Z,5.34
2023-03-04T18:00:24.433Z,5.07
2023-03-04T18:02:51.179Z,5.16
2023-03-04T18:05:17.924Z,4.93
2023-03-04T18:07:44.571Z,4.85
2023-03-04T18:10:11.413Z,5.02
2023-03-04T18:12:38.161Z,4.86
2023-03-04T18:15:05.261Z,4.64
2023-03-04T18:17:31.912Z,4.52
2023-03-04T18:19:58.569Z,4.42
2023-03-04T18:22:25.243Z,4.51
2023-03-04T18:24:51.886Z,4.40
2023-03-04T18:27:18.689Z,4.25
2023-03-04T18:29:47.637Z,4.35
2023-03-04T18:32:14.633Z,4.26
2023-03-04T18:34:41.328Z,4.27
2023-03-04T18:37:08.041Z,3.93
2023-03-04T18:39:34.670Z,3.92
2023-03-04T18:42:01.291Z,3.85
2023-03-04T18:44:28.017Z,3.72
2023-03-04T18:46:56.972Z,3.58
2023-03-04T18:49:24.157Z,3.88
2023-03-04T18:51:51.586Z,3.87
2023-03-04T18:54:18.227Z,3.89
2023-03-04T18:56:53.108Z,3.39
2023-03-04T18:59:22.623Z,3.13
2023-03-04T19:01:51.382Z,3.01
2023-03-04T19:04:20.144Z,3.16
2023-03-04T19:06:47.271Z,2.90
2023-03-04T19:09:13.901Z,2.99
2023-03-04T19:11:40.599Z,2.73
2023-03-04T19:14:07.204Z,2.85
2023-03-04T19:16:34.110Z,2.57
2023-03-04T19:19:02.521Z,2.63
2023-03-04T19:21:29.178Z,2.82
2023-03-04T19:23:55.930Z,2.77
2023-03-04T19:26:22.737Z,2.39
2023-03-04T19:28:49.366Z,2.40
2023-03-04T19:31:15.994Z,2.34
2023-03-04T19:33:42.645Z,2.32
2023-03-04T19:36:10.372Z,2.57
2023-03-04T19:38:37.081Z,2.07
2023-03-04T19:41:15.207Z,2.02
2023-03-04T19:43:41.994Z,1.92
2023-03-04T19:46:10.446Z,1.99
2023-03-04T19:48:38.164Z,1.98
2023-03-04T19:51:14.123Z,1.85
2023-03-04T19:53:40.769Z,2.01
2023-03-04T19:56:07.995Z,1.95
2023-03-04T19:58:34.639Z,1.87
2023-03-04T20:01:01.600Z,1.79
2023-03-04T20:03:28.373Z,1.81
2023-03-04T20:06:08.670Z,1.83
2023-03-04T20:08:38.376Z,1.83
2023-03-04T20:11:11.917Z,1.91
2023-03-04T20:13:38.710Z,1.78
2023-03-04T20:16:12.110Z,1.60
2023-03-04T20:18:39.970Z,1.66
2023-03-04T20:21:06.912Z,1.69
2023-03-04T20:23:34.159Z,1.86
2023-03-04T20:26:01.021Z,1.88
2023-03-04T20:28:29.611Z,1.69
2023-03-04T20:31:11.673Z,1.78
2023-03-04T20:33:38.565Z,2.03
2023-03-04T20:36:05.488Z,1.91
2023-03-04T20:38:34.893Z,1.46
2023-03-04T20:41:01.601Z,1.52
2023-03-04T20:43:28.264Z,1.41
2023-03-04T20:45:55.482Z,1.32
2023-03-04T20:48:22.173Z,1.38
2023-03-04T20:50:48.984Z,1.52
2023-03-04T20:53:15.607Z,1.75
2023-03-04T20:55:42.295Z,1.86
2023-03-04T20:58:08.939Z,2.09
2023-03-04T21:00:35.628Z,1.95
2023-03-04T21:03:02.486Z,2.09
2023-03-04T21:05:30.855Z,2.02
2023-03-04T21:07:58.932Z,2.07
2023-03-04T21:10:25.711Z,1.93
2023-03-04T21:12:52.333Z,1.21
2023-03-04T21:15:19.085Z,1.32
2023-03-04T21:17:45.729Z,1.20
2023-03-04T21:20:14.731Z,1.31
2023-03-04T21:22:41.405Z,1.59
2023-03-04T21:25:08.613Z,1.38
2023-03-04T21:27:35.259Z,1.21
2023-03-04T21:30:01.998Z,1.07
2023-03-04T21:32:28.908Z,1.17
2023-03-04T21:34:56.025Z,1.53
2023-03-04T21:37:24.642Z,1.57
2023-03-04T21:39:51.516Z,1.37
2023-03-04T21:42:18.343Z,1.05
2023-03-04T21:44:49.602Z,1.20
2023-03-04T21:47:17.246Z,0.99
2023-03-04T21:49:44.102Z,1.22
2023-03-04T21:52:10.741Z,0.99
2023-03-04T21:54:37.417Z,0.59
2023-03-04T21:57:04.128Z,0.78
2023-03-04T21:59:30.771Z,0.66
2023-03-04T22:01:57.438Z,0.66
2023-03-04T22:04:24.065Z,0.73
2023-03-04T22:06:50.708Z,0.75
2023-03-04T22:09:17.346Z,0.69
2023-03-04T22:11:46.206Z,0.75
2023-03-04T22:14:13.236Z,1.07
2023-03-04T22:16:53.946Z,1.03
2023-03-04T22:19:26.556Z,1.02
2023-03-04T22:21:53.814Z,1.05
2023-03-04T22:24:21.351Z,1.07
2023-03-04T22:26:48.755Z,0.80
2023-03-04T22:29:15.516Z,0.61
2023-03-04T22:31:42.301Z,0.66
2023-03-04T22:34:14.852Z,0.71
2023-03-04T22:36:43.400Z,0.60
2023-03-04T22:39:15.584Z,0.85
2023-03-04T22:41:42.446Z,0.91
2023-03-04T22:44:09.113Z,0.95
2023-03-04T22:46:38.071Z,0.62
2023-03-04T22:49:07.540Z,0.36
2023-03-04T22:51:34.261Z,0.63
2023-03-04T22:54:00.941Z,0.44
2023-03-04T22:56:27.625Z,0.43
2023-03-04T22:58:57.184Z,0.42
2023-03-04T23:01:24.058Z,0.49
2023-03-04T23:03:51.129Z,0.72
2023-03-04T23:06:21.165Z,0.81
2023-03-04T23:08:49.897Z,0.54
2023-03-04T23:11:23.453Z,0.56
2023-03-04T23:13:50.883Z,0.69
2023-03-04T23:16:18.473Z,0.73
2023-03-04T23:18:46.670Z,0.66
2023-03-04T23:21:17.148Z,0.82
2023-03-04T23:23:47.314Z,0.72
2023-03-04T23:26:19.654Z,0.45
2023-03-04T23:28:46.509Z,0.51
2023-03-04T23:31:14.310Z,0.39
2023-03-04T23:33:42.446Z,0.46
2023-03-04T23:36:15.481Z,0.62
2023-03-04T23:38:47.892Z,0.72
2023-03-04T23:41:27.018Z,0.74
2023-03-04T23:43:58.814Z,0.63
2023-03-04T23:46:26.228Z,0.64
2023-03-04T23:48:54.327Z,0.94
2023-03-04T23:51:28.393Z,0.70
2023-03-04T23:53:55.929Z,0.65
2023-03-04T23:56:25.308Z,0.62
2023-03-04T23:58:55.143Z,0.61
